Time;durP1;ratioP1;P1;durP2;ratioP2;P2;SDS_P1;SDS_P2;PMS_P1;PMS_P2;Temp;Humidity;BMP_temperature;BMP_pressure;BME280_temperature;BME280_humidity;BME280_pressure;Samples;Min_cycle;Max_cycle;Signal;HPM_P1;HPM_P2
2022/05/31 00:00:40;;;;;;;10.07;6.47;;;;;;;18.38;100.00;62766.00;5091210;28;20212;-72
2022/05/31 00:03:09;;;;;;;8.93;5.67;;;;;;;19.33;100.00;62868.09;5093659;28;20245;-75
2022/05/31 00:05:36;;;;;;;16.97;6.23;;;;;;;19.20;100.00;62858.66;5094936;28;20257;-73
2022/05/31 00:08:03;;;;;;;12.23;6.37;;;;;;;19.13;100.00;62846.47;5093584;28;20199;-73
2022/05/31 00:10:30;;;;;;;8.73;5.57;;;;;;;18.57;100.00;62788.59;5094252;28;20292;-73
2022/05/31 00:12:57;;;;;;;14.20;6.00;;;;;;;18.93;100.00;62824.88;5094766;28;20191;-75
2022/05/31 00:15:24;;;;;;;9.97;5.43;;;;;;;18.51;100.00;62774.38;5094637;28;20629;-74
2022/05/31 00:17:51;;;;;;;10.93;6.20;;;;;;;18.87;100.00;62820.44;5093402;28;20280;-73
2022/05/31 00:20:20;;;;;;;9.97;5.93;;;;;;;18.54;100.00;62782.75;5093909;28;20212;-72
2022/05/31 00:22:48;;;;;;;11.97;5.73;;;;;;;18.19;100.00;62742.38;5093982;28;20215;-73
2022/05/31 00:25:16;;;;;;;10.90;5.87;;;;;;;18.54;100.00;62783.28;5094355;28;20192;-75
2022/05/31 00:27:44;;;;;;;11.60;6.17;;;;;;;17.96;100.00;62720.13;5094209;28;20288;-74
2022/05/31 00:30:13;;;;;;;11.27;5.63;;;;;;;18.50;100.00;62778.97;5094266;28;20272;-73
2022/05/31 00:32:46;;;;;;;10.60;5.80;;;;;;;18.44;100.00;62774.53;5093085;28;20273;-73
2022/05/31 00:35:16;;;;;;;11.10;5.60;;;;;;;18.41;100.00;62768.72;5094020;28;20203;-73
2022/05/31 00:37:44;;;;;;;10.37;5.47;;;;;;;18.31;100.00;62757.91;5094080;28;20219;-73
2022/05/31 00:40:15;;;;;;;7.93;5.10;;;;;;;18.18;100.00;62743.88;5094113;28;20694;-72
2022/05/31 00:42:53;;;;;;;14.10;5.30;;;;;;;18.14;100.00;62744.72;5093750;28;20629;-72
2022/05/31 00:45:20;;;;;;;12.23;5.50;;;;;;;18.14;100.00;62742.13;5092732;28;20200;-74
2022/05/31 00:47:48;;;;;;;10.93;5.43;;;;;;;17.80;100.00;62702.88;5093544;28;20343;-71
2022/05/31 00:50:21;;;;;;;9.57;5.80;;;;;;;18.18;100.00;62746.44;5093698;28;20277;-73
2022/05/31 00:52:54;;;;;;;14.93;5.43;;;;;;;18.16;100.00;62741.72;5093556;28;20196;-73
2022/05/31 00:55:23;;;;;;;12.90;6.10;;;;;;;18.02;100.00;62729.72;5093998;28;20203;-73
2022/05/31 00:58:17;;;;;;;11.40;4.93;;;;;;;18.25;100.00;62751.44;5093481;28;20200;-73
2022/05/31 01:00:44;;;;;;;7.67;4.97;;;;;;;17.73;100.00;62696.41;5093738;28;20227;-74
2022/05/31 01:03:17;;;;;;;9.40;5.17;;;;;;;17.80;100.00;62702.88;5093470;28;20335;-72
2022/05/31 01:05:43;;;;;;;8.00;5.10;;;;;;;17.70;100.00;62695.75;5093568;28;20195;-74
2022/05/31 01:08:12;;;;;;;16.27;5.40;;;;;;;17.38;100.00;62656.06;5092626;28;20219;-72
2022/05/31 01:10:42;;;;;;;10.17;5.70;;;;;;;17.75;100.00;62700.06;5093238;28;20269;-73
2022/05/31 01:13:10;;;;;;;9.33;5.50;;;;;;;17.57;100.00;62681.72;5093707;28;20199;-72
2022/05/31 01:15:37;;;;;;;9.70;6.30;;;;;;;17.42;100.00;62662.41;5093185;28;20203;-73
2022/05/31 01:18:06;;;;;;;12.77;5.33;;;;;;;17.42;100.00;62662.41;5093267;28;20207;-72
2022/05/31 01:20:34;;;;;;;17.20;6.17;;;;;;;17.28;100.00;62653.00;5093281;28;20207;-74
2022/05/31 01:23:06;;;;;;;13.57;5.50;;;;;;;17.31;100.00;62650.53;5092859;28;20203;-73
2022/05/31 01:25:59;;;;;;;11.97;5.50;;;;;;;17.23;100.00;62645.03;5093541;28;20207;-72
2022/05/31 01:28:37;;;;;;;9.87;5.30;;;;;;;17.20;100.00;62643.84;5093008;28;20231;-73
2022/05/31 01:31:10;;;;;;;8.23;6.07;;;;;;;17.26;100.00;62645.16;5092905;28;20223;-73
2022/05/31 01:33:44;;;;;;;9.63;5.57;;;;;;;17.32;100.00;62651.63;5092721;28;20253;-74
2022/05/31 01:36:17;;;;;;;10.33;5.27;;;;;;;17.20;100.00;62644.38;5075206;28;20199;-73
2022/05/31 01:38:48;;;;;;;11.50;5.83;;;;;;;17.09;100.00;62629.94;5092985;28;20215;-73
2022/05/31 01:41:20;;;;;;;11.03;5.20;;;;;;;16.99;100.00;62616.56;5093276;28;20276;-74
2022/05/31 01:43:50;;;;;;;11.13;5.23;;;;;;;17.12;100.00;62635.75;5092695;28;20253;-72
2022/05/31 01:46:22;;;;;;;8.07;4.97;;;;;;;17.09;100.00;62627.34;5092465;28;20211;-73
2022/05/31 01:48:49;;;;;;;9.20;5.07;;;;;;;16.35;100.00;62552.72;5094915;28;20199;-73
2022/05/31 01:51:18;;;;;;;7.60;5.70;;;;;;;17.02;100.00;62619.81;5094799;28;20230;-72
2022/05/31 01:53:45;;;;;;;12.87;5.77;;;;;;;16.92;100.00;62609.03;5092390;28;20662;-73
2022/05/31 01:56:13;;;;;;;10.10;5.37;;;;;;;16.14;100.00;62525.50;5092283;28;20203;-75
2022/05/31 01:58:44;;;;;;;13.90;6.20;;;;;;;16.79;100.00;62597.59;5092295;28;20222;-72
2022/05/31 02:01:11;;;;;;;11.93;5.20;;;;;;;16.90;100.00;62604.31;5092917;28;20203;-72
2022/05/31 02:03:40;;;;;;;11.80;5.17;;;;;;;16.90;100.00;62607.41;5092510;28;20307;-73
2022/05/31 02:06:25;;;;;;;10.57;5.60;;;;;;;16.99;100.00;62616.03;5092410;28;20206;-72
2022/05/31 02:08:52;;;;;;;13.70;4.93;;;;;;;16.78;100.00;62593.94;5091201;28;20199;-73
2022/05/31 02:11:21;;;;;;;11.43;6.07;;;;;;;16.95;100.00;62612.25;5092023;28;20281;-74
2022/05/31 02:13:48;;;;;;;13.63;6.47;;;;;;;17.14;100.00;62635.34;5092370;28;20218;-73
2022/05/31 02:16:15;;;;;;;12.83;5.43;;;;;;;17.18;100.00;62637.06;5095739;28;20260;-75
2022/05/31 02:21:35;;;;;;;10.40;5.93;;;;;;;16.71;100.00;62592.09;5092814;28;20634;-72
2022/05/31 02:24:03;;;;;;;11.63;5.10;;;;;;;17.21;100.00;62640.28;5092500;28;20644;-73
2022/05/31 02:26:31;;;;;;;9.47;6.13;;;;;;;16.74;100.00;62589.63;5092241;28;20195;-73
2022/05/31 02:28:58;;;;;;;8.60;5.37;;;;;;;16.99;100.00;62616.03;5085224;28;20227;-74
2022/05/31 02:31:25;;;;;;;7.53;5.13;;;;;;;17.05;100.00;62622.50;5091730;28;20230;-73
2022/05/31 02:33:52;;;;;;;11.00;5.70;;;;;;;17.02;100.00;62619.81;5091763;28;20731;-73
2022/05/31 02:36:19;;;;;;;10.63;6.00;;;;;;;17.05;100.00;62628.19;5091701;28;20208;-74
2022/05/31 02:38:47;;;;;;;7.43;5.53;;;;;;;17.14;100.00;62632.75;5091641;28;20298;-74
2022/05/31 02:41:15;;;;;;;11.97;5.80;;;;;;;17.21;100.00;62644.91;5091957;28;20204;-73
2022/05/31 02:43:42;;;;;;;15.53;5.73;;;;;;;17.23;100.00;62642.44;5092069;28;20673;-73
2022/05/31 02:46:08;;;;;;;12.97;6.10;;;;;;;17.09;100.00;62629.94;5091769;28;20674;-73
2022/05/31 02:48:38;;;;;;;7.67;5.53;;;;;;;16.88;100.00;62610.41;5091430;28;20261;-73
2022/05/31 02:51:05;;;;;;;8.43;5.80;;;;;;;16.81;100.00;62597.19;5091924;28;20281;-72
2022/05/31 02:53:32;;;;;;;8.07;5.33;;;;;;;16.77;100.00;62592.88;5091529;28;20200;-72
2022/05/31 02:56:01;;;;;;;7.43;5.50;;;;;;;16.90;100.00;62606.88;5091845;28;20555;-72
2022/05/31 02:58:28;;;;;;;10.83;5.90;;;;;;;16.99;100.00;62616.03;5083515;28;20207;-72
2022/05/31 03:00:54;;;;;;;10.20;5.40;;;;;;;16.94;100.00;62611.19;5085613;28;20203;-76
2022/05/31 03:03:23;;;;;;;11.90;5.87;;;;;;;16.70;100.00;62587.91;5091490;28;20252;-75
2022/05/31 03:05:52;;;;;;;9.10;5.57;;;;;;;16.89;100.00;62611.50;5091666;28;20227;-73
2022/05/31 03:08:19;;;;;;;9.33;5.87;;;;;;;16.36;100.00;62548.69;5091367;28;20235;-73
2022/05/31 03:10:49;;;;;;;12.07;6.10;;;;;;;16.99;100.00;62618.59;5095695;28;20668;-74
2022/05/31 03:13:23;;;;;;;12.27;6.20;;;;;;;16.94;100.00;62610.66;5096141;28;20272;-73
2022/05/31 03:15:52;;;;;;;11.77;7.30;;;;;;;16.78;100.00;62593.94;5095346;28;20205;-73
2022/05/31 03:18:24;;;;;;;16.97;8.00;;;;;;;16.91;100.00;62610.53;5095767;28;20195;-72
2022/05/31 03:20:55;;;;;;;19.13;7.53;;;;;;;16.84;100.00;62603.00;5095349;28;20199;-72
2022/05/31 03:23:25;;;;;;;13.00;7.43;;;;;;;16.50;100.00;62572.03;5095494;28;20631;-73
2022/05/31 03:25:54;;;;;;;19.73;7.13;;;;;;;16.79;100.00;62595.03;5095333;28;20638;-74
2022/05/31 03:28:23;;;;;;;13.33;6.73;;;;;;;16.89;100.00;62603.22;5095287;28;20204;-73
2022/05/31 03:30:51;;;;;;;10.30;6.70;;;;;;;16.82;100.00;62598.25;5077136;28;20690;-73
2022/05/31 03:33:19;;;;;;;14.40;7.27;;;;;;;16.85;100.00;62607.19;5095265;28;20279;-73
2022/05/31 03:35:46;;;;;;;13.50;7.33;;;;;;;16.71;100.00;62589.50;5095102;28;20199;-73
2022/05/31 03:38:12;;;;;;;11.90;6.93;;;;;;;16.72;100.00;62590.06;5095026;28;20614;-73
2022/05/31 03:40:58;;;;;;;14.27;7.60;;;;;;;16.75;100.00;62593.81;5095115;28;20204;-73
2022/05/31 03:43:28;;;;;;;16.10;7.30;;;;;;;16.73;100.00;62591.13;5095673;28;20261;-72
2022/05/31 03:45:56;;;;;;;13.73;7.10;;;;;;;16.96;100.00;62615.94;5095278;28;20200;-73
2022/05/31 03:48:23;;;;;;;15.10;7.03;;;;;;;16.22;100.00;62531.03;5094974;28;20203;-74
2022/05/31 03:50:59;;;;;;;14.57;7.30;;;;;;;17.14;100.00;62632.75;5094634;28;20264;-73
2022/05/31 03:53:26;;;;;;;14.30;6.77;;;;;;;17.08;100.00;62631.44;5094895;28;20203;-74
2022/05/31 03:55:54;;;;;;;12.90;7.00;;;;;;;17.19;100.00;62638.13;5094806;28;20629;-74
2022/05/31 03:58:21;;;;;;;19.97;10.17;;;;;;;17.11;100.00;62629.50;5095216;28;20204;-77
2022/05/31 04:00:50;;;;;;;22.50;12.17;;;;;;;17.46;100.00;62669.84;5094885;28;20200;-72
2022/05/31 04:03:17;;;;;;;18.57;10.30;;;;;;;17.38;100.00;62661.22;5089966;28;20226;-73
2022/05/31 04:05:44;;;;;;;19.67;12.60;;;;;;;16.49;100.00;62563.22;5087673;28;20666;-72
2022/05/31 04:08:12;;;;;;;18.53;12.23;;;;;;;17.71;100.00;62693.69;5095141;28;20264;-73
2022/05/31 04:10:40;;;;;;;26.37;14.20;;;;;;;17.83;100.00;62706.13;5096424;28;20199;-71
2022/05/31 04:13:07;;;;;;;35.20;16.10;;;;;;;17.82;100.00;62705.03;5096832;28;20782;-72
2022/05/31 04:15:35;;;;;;;50.73;30.70;;;;;;;17.75;100.00;62697.50;5096510;28;20196;-73
2022/05/31 04:18:04;;;;;;;55.73;34.03;;;;;;;17.71;100.00;62696.81;5095838;28;20212;-73
2022/05/31 04:20:31;;;;;;;50.90;23.93;;;;;;;17.70;100.00;62693.16;5096005;28;20666;-73
2022/05/31 04:25:40;;;;;;;41.10;17.10;;;;;;;18.01;100.00;62728.13;5095261;28;20204;-73
2022/05/31 04:28:07;;;;;;;23.17;12.00;;;;;;;18.10;100.00;62740.41;5095583;28;20256;-73
2022/05/31 04:30:34;;;;;;;17.87;10.60;;;;;;;18.39;100.00;62766.56;5096415;28;20228;-73
2022/05/31 04:33:00;;;;;;;19.33;9.07;;;;;;;18.40;100.00;62767.63;5095420;28;20231;-73
2022/05/31 04:35:29;;;;;;;18.73;7.57;;;;;;;18.50;100.00;62781.00;5095860;28;20203;-72
2022/05/31 04:37:57;;;;;;;18.27;8.00;;;;;;;18.26;100.00;62752.50;5095450;28;20219;-72
2022/05/31 04:40:24;;;;;;;13.80;7.30;;;;;;;18.53;100.00;62784.25;5094830;28;20199;-73
2022/05/31 04:42:52;;;;;;;17.70;7.23;;;;;;;18.67;100.00;62799.38;5093719;28;20203;-72
2022/05/31 04:45:19;;;;;;;16.53;7.47;;;;;;;18.87;100.00;62815.25;5093589;28;20203;-73
2022/05/31 04:47:47;;;;;;;12.07;6.37;;;;;;;19.25;100.00;62862.03;5093654;28;20674;-74
2022/05/31 04:50:14;;;;;;;14.10;6.90;;;;;;;19.36;100.00;62873.91;5095277;28;20211;-74
2022/05/31 04:52:43;;;;;;;17.27;7.17;;;;;;;19.20;100.00;62858.66;5075468;28;20310;-73
2022/05/31 04:55:10;;;;;;;10.20;6.57;;;;;;;19.48;100.00;62878.06;5093633;28;20622;-74
2022/05/31 04:57:38;;;;;;;13.80;7.00;;;;;;;19.11;100.00;62844.31;5093715;28;20211;-73
2022/05/31 05:00:06;;;;;;;10.80;7.10;;;;;;;20.05;100.00;62947.41;5093531;28;20207;-73
2022/05/31 05:02:33;;;;;;;10.87;6.97;;;;;;;20.39;100.00;62984.19;5093423;28;20204;-72
2022/05/31 05:05:00;;;;;;;20.43;7.60;;;;;;;20.63;100.00;63007.56;5093642;28;20207;-75
2022/05/31 05:07:29;;;;;;;10.70;7.70;;;;;;;20.23;100.00;62964.31;5092279;28;20662;-75
2022/05/31 05:09:58;;;;;;;13.27;8.53;;;;;;;20.66;100.00;63010.81;5092926;28;20584;-73
2022/05/31 05:12:25;;;;;;;16.60;8.70;;;;;;;20.70;100.00;63015.13;5093153;28;20230;-74
2022/05/31 05:14:52;;;;;;;16.67;8.43;;;;;;;20.58;100.00;63002.16;5093492;28;20200;-73
2022/05/31 05:17:19;;;;;;;16.03;8.10;;;;;;;20.77;100.00;63025.28;5092949;28;20253;-74
2022/05/31 05:19:46;;;;;;;17.40;8.03;;;;;;;20.55;100.00;63001.50;5093204;28;20260;-72
2022/05/31 05:22:13;;;;;;;14.63;7.87;;;;;;;20.91;100.00;63037.84;5092877;28;20204;-73
2022/05/31 05:24:40;;;;;;;17.20;7.53;;;;;;;21.22;100.00;63070.31;5092952;28;20635;-73
2022/05/31 05:27:08;;;;;;;13.20;7.50;;;;;;;21.35;100.00;63087.00;5093941;28;20273;-73
2022/05/31 05:32:19;;;;;;;13.37;6.97;;;;;;;21.61;100.00;63112.56;5092462;28;20264;-72
2022/05/31 05:34:52;;;;;;;15.50;7.30;;;;;;;21.55;100.00;63106.06;5092873;28;20200;-73
2022/05/31 05:37:21;;;;;;;21.73;7.93;;;;;;;21.75;100.00;63125.13;5092631;28;20200;-73
2022/05/31 05:39:47;;;;;;;27.53;8.67;;;;;;;22.05;100.00;63162.81;5092661;28;20248;-75
2022/05/31 05:42:17;;;;;;;12.93;7.23;;;;;;;22.23;100.00;63177.13;5092739;28;20207;-73
2022/05/31 05:44:44;;;;;;;18.50;7.17;;;;;;;22.35;100.00;63190.13;5092536;28;20200;-73
2022/05/31 05:47:14;;;;;;;12.63;6.87;;;;;;;21.95;100.00;63148.84;5092230;28;20252;-74
2022/05/31 05:49:44;;;;;;;20.00;7.37;;;;;;;22.53;100.00;63211.66;5092707;28;20282;-73
2022/05/31 05:52:14;;;;;;;12.30;6.70;;;;;;;22.81;100.00;63241.47;5092542;28;20660;-73
2022/05/31 05:54:43;;;;;;;11.27;6.80;;;;;;;23.08;100.00;63270.75;5092473;28;20613;-74
2022/05/31 05:57:09;;;;;;;11.77;6.93;;;;;;;22.90;100.00;63243.44;5092480;28;20253;-73
2022/05/31 05:59:37;;;;;;;18.63;7.73;;;;;;;22.39;100.00;63191.31;5092220;28;20252;-72
2022/05/31 06:02:12;;;;;;;15.40;7.50;;;;;;;23.01;100.00;63263.16;5092318;28;20207;-73
2022/05/31 06:04:44;;;;;;;20.37;7.23;;;;;;;21.91;100.00;63147.09;5092644;28;20550;-73
2022/05/31 06:07:15;;;;;;;9.87;6.83;;;;;;;22.77;100.00;63231.94;5091635;28;20559;-73
2022/05/31 06:09:47;;;;;;;13.30;7.00;;;;;;;22.95;100.00;63257.19;5092275;28;20260;-74
2022/05/31 06:12:18;;;;;;;16.90;7.07;;;;;;;23.37;100.00;63302.75;5091686;28;20235;-72
2022/05/31 06:14:52;;;;;;;27.30;7.97;;;;;;;23.68;100.00;63335.28;5092126;28;20621;-72
2022/05/31 06:17:22;;;;;;;16.07;7.37;;;;;;;23.81;100.00;63349.38;5092003;28;20208;-74
2022/05/31 06:19:51;;;;;;;23.00;7.70;;;;;;;23.52;100.00;63321.09;5092342;28;20665;-74
2022/05/31 06:22:20;;;;;;;25.33;7.50;;;;;;;23.65;100.00;63329.97;5091954;28;20210;-74
2022/05/31 06:24:48;;;;;;;10.67;7.03;;;;;;;23.94;100.00;63369.25;5091707;28;20233;-74
2022/05/31 06:27:15;;;;;;;14.67;7.63;;;;;;;24.38;100.00;63410.72;5073527;28;20212;-73
2022/05/31 06:29:42;;;;;;;16.77;8.00;;;;;;;24.56;100.00;63430.25;5091739;28;20288;-73
2022/05/31 06:32:11;;;;;;;23.97;8.53;;;;;;;24.73;100.00;63446.13;5092248;28;20229;-74
2022/05/31 06:34:39;;;;;;;13.23;7.37;;;;;;;24.93;100.00;63470.97;5091733;28;20290;-73
2022/05/31 06:37:09;;;;;;;13.27;6.87;;;;;;;25.02;100.00;63480.19;5091448;28;20230;-74
2022/05/31 06:39:36;;;;;;;14.93;7.30;;;;;;;24.96;100.00;63473.69;5091558;28;20201;-75
2022/05/31 06:42:05;;;;;;;16.30;7.63;;;;;;;24.87;100.00;63461.84;5091226;28;20700;-74
2022/05/31 06:44:33;;;;;;;15.83;7.23;;;;;;;24.84;100.00;63460.66;5076971;28;20287;-74
2022/05/31 06:47:00;;;;;;;16.70;7.23;;;;;;;25.17;100.00;63496.50;5091293;28;20267;-74
2022/05/31 06:49:30;;;;;;;23.83;7.00;;;;;;;24.99;100.00;63476.97;5091479;28;20662;-73
2022/05/31 06:57:31;;;;;;;14.60;7.33;;;;;;;24.95;100.00;63473.13;5091470;28;20413;-73
2022/05/31 06:59:58;;;;;;;26.10;7.50;;;;;;;24.31;100.00;63404.19;5091216;28;20265;-74
2022/05/31 07:02:25;;;;;;;12.03;7.73;;;;;;;25.02;100.00;63480.19;5091265;28;20575;-73
2022/05/31 07:04:53;;;;;;;14.77;7.90;;;;;;;25.43;100.00;63522.16;5091242;28;20650;-75
2022/05/31 07:07:22;;;;;;;20.17;10.30;;;;;;;25.80;100.00;63564.94;5090399;28;20205;-72
2022/05/31 07:09:50;;;;;;;20.40;7.50;;;;;;;25.89;100.00;63574.75;5091360;28;20200;-75
2022/05/31 07:12:18;;;;;;;19.80;7.87;;;;;;;25.81;100.00;63565.50;5091066;28;20227;-72
2022/05/31 07:14:45;;;;;;;14.00;7.10;;;;;;;25.80;100.00;63564.94;5091469;28;20323;-73
2022/05/31 07:17:12;;;;;;;10.50;7.00;;;;;;;26.31;100.00;63614.09;5091283;28;20202;-74
2022/05/31 07:19:39;;;;;;;14.27;7.70;;;;;;;26.54;100.00;63641.72;5091626;28;20207;-73
2022/05/31 07:22:08;;;;;;;17.30;8.00;;;;;;;26.84;100.00;63676.97;5091124;28;20706;-73
2022/05/31 07:24:35;;;;;;;12.80;7.37;;;;;;;26.55;100.00;63645.41;5091035;28;20203;-74
2022/05/31 07:27:03;;;;;;;15.07;7.67;;;;;;;26.19;100.00;63606.25;5091634;28;20245;-73
2022/05/31 07:29:30;;;;;;;16.10;7.67;;;;;;;26.08;100.00;63594.31;5090985;28;20234;-72
2022/05/31 07:31:58;;;;;;;13.30;8.00;;;;;;;26.38;100.00;63629.53;5091125;28;20203;-73
2022/05/31 07:34:25;;;;;;;14.80;7.67;;;;;;;26.06;100.00;63590.03;5091040;28;20200;-75
2022/05/31 07:36:53;;;;;;;16.80;8.03;;;;;;;25.54;100.00;63536.16;5090842;28;20211;-73
2022/05/31 07:39:22;;;;;;;15.53;8.23;;;;;;;26.31;100.00;63619.84;5090871;28;20677;-73
2022/05/31 07:41:49;;;;;;;13.13;7.57;;;;;;;26.26;100.00;63619.13;5091254;28;20195;-74
2022/05/31 07:44:17;;;;;;;18.87;7.90;;;;;;;26.50;100.00;63642.59;5091035;28;20666;-73
2022/05/31 07:46:45;;;;;;;20.37;7.97;;;;;;;26.82;100.00;63674.78;5090615;28;20222;-74
2022/05/31 07:49:12;;;;;;;12.50;7.30;;;;;;;26.89;100.00;63682.41;5091009;28;20269;-73
2022/05/31 07:51:40;;;;;;;16.23;8.00;;;;;;;26.21;100.00;63605.81;5090951;28;20260;-74
2022/05/31 07:54:07;;;;;;;13.87;8.40;;;;;;;27.06;100.00;63700.34;5091703;28;20248;-73
2022/05/31 07:56:35;;;;;;;14.73;8.00;;;;;;;27.11;100.00;63705.78;5094607;28;20199;-73
2022/05/31 07:59:02;;;;;;;23.83;8.73;;;;;;;27.21;100.00;63717.19;5094542;28;20199;-73
2022/05/31 08:01:28;;;;;;;25.33;8.47;;;;;;;27.20;100.00;63716.13;5094450;28;20199;-74
2022/05/31 08:03:56;;;;;;;15.30;7.90;;;;;;;27.19;100.00;63717.66;5094478;28;20206;-74
2022/05/31 08:06:28;;;;;;;21.13;9.40;;;;;;;27.09;100.00;63706.75;5094159;28;20242;-75
2022/05/31 08:08:56;;;;;;;14.17;8.00;;;;;;;27.06;100.00;63700.91;5093128;28;20662;-73
2022/05/31 08:11:26;;;;;;;16.73;8.23;;;;;;;27.51;100.00;63751.94;5093925;28;20227;-73
2022/05/31 08:13:54;;;;;;;20.83;7.70;;;;;;;27.89;100.00;63790.16;5093907;28;20231;-73
2022/05/31 08:16:23;;;;;;;16.13;7.97;;;;;;;27.58;100.00;63762.19;5094529;28;20253;-74
2022/05/31 08:18:51;;;;;;;19.80;7.87;;;;;;;27.73;100.00;63770.09;5094402;28;20199;-73
2022/05/31 08:21:27;;;;;;;10.63;7.30;;;;;;;28.08;100.00;63810.84;5094140;28;20252;-72
2022/05/31 08:23:56;;;;;;;14.50;6.87;;;;;;;28.23;100.00;63827.19;5094080;28;20205;-74
2022/05/31 08:26:22;;;;;;;14.73;6.90;;;;;;;28.21;100.00;63825.53;5094714;28;20200;-73
2022/05/31 08:28:50;;;;;;;15.73;6.37;;;;;;;28.35;100.00;63840.25;5093739;28;20231;-72
2022/05/31 08:31:22;;;;;;;12.77;6.40;;;;;;;28.88;100.00;63897.97;5094368;28;20196;-74
2022/05/31 08:33:49;;;;;;;15.67;6.67;;;;;;;28.86;100.00;63898.44;5093855;28;20288;-74
2022/05/31 08:36:16;;;;;;;16.10;7.03;;;;;;;28.98;100.00;63911.50;5094073;28;20265;-73
2022/05/31 08:38:43;;;;;;;14.60;7.30;;;;;;;29.09;100.00;63920.88;5075972;28;20234;-73
2022/05/31 08:41:23;;;;;;;13.93;7.63;;;;;;;29.09;100.00;63920.31;5093628;28;20200;-73
2022/05/31 08:44:06;;;;;;;18.63;7.03;;;;;;;29.47;100.00;63956.50;5093963;28;20636;-74
2022/05/31 08:46:47;;;;;;;13.37;6.70;;;;;;;29.56;100.00;63968.41;5093542;28;20625;-75
2022/05/31 08:52:27;;;;;;;12.87;6.23;;;;;;;29.22;100.00;63928.72;5093779;28;20202;-73
2022/05/31 08:57:50;;;;;;;13.50;6.60;;;;;;;29.37;100.00;63945.06;5094429;28;20298;-73
2022/05/31 09:00:20;;;;;;;14.97;5.80;;;;;;;29.16;100.00;63928.50;5094194;28;20196;-73
2022/05/31 09:02:56;;;;;;;14.87;6.07;;;;;;;29.53;100.00;63963.03;5094853;28;20213;-73
2022/05/31 09:05:28;;;;;;;11.20;5.10;;;;;;;28.91;100.00;63901.25;5093654;28;20197;-74
2022/05/31 09:08:03;;;;;;;10.23;5.20;;;;;;;28.85;100.00;63894.72;5092053;28;20204;-74
2022/05/31 09:10:37;;;;;;;12.43;4.50;;;;;;;28.48;100.00;63851.78;5093232;28;20681;-74
2022/05/31 09:13:11;;;;;;;9.80;4.77;;;;;;;29.32;100.00;63939.63;5078912;28;20787;-74
2022/05/31 09:15:42;;;;;;;8.37;4.70;;;;;;;29.31;100.00;63941.69;5093398;28;20206;-72
2022/05/31 09:18:19;;;;;;;12.20;4.77;;;;;;;29.66;100.00;63982.47;5093003;28;20222;-74
2022/05/31 09:20:53;;;;;;;10.93;5.07;;;;;;;29.53;100.00;63967.75;5093277;28;20204;-73
2022/05/31 09:23:24;;;;;;;18.33;4.73;;;;;;;29.35;100.00;63945.50;5093554;28;20220;-73
2022/05/31 09:25:59;;;;;;;13.67;4.90;;;;;;;29.48;100.00;63962.31;5093012;28;20592;-74
2022/05/31 09:28:35;;;;;;;13.13;5.60;;;;;;;29.12;100.00;63928.84;5092665;28;20227;-74
2022/05/31 09:31:13;;;;;;;10.03;5.27;;;;;;;29.36;100.00;63949.75;5092891;28;20232;-74
2022/05/31 09:33:49;;;;;;;12.87;5.30;;;;;;;29.28;100.00;63946.28;5092931;28;20230;-74
2022/05/31 09:36:25;;;;;;;10.03;5.70;;;;;;;27.52;100.00;63750.41;5092809;28;20217;-73
2022/05/31 09:39:12;;;;;;;11.20;5.90;;;;;;;28.95;100.00;63905.63;5092788;28;20294;-73
2022/05/31 09:41:45;;;;;;;8.57;4.63;;;;;;;29.47;100.00;63961.22;5093010;28;20246;-73
2022/05/31 09:44:18;;;;;;;11.63;4.47;;;;;;;29.64;100.00;63979.75;5093635;28;20208;-73
2022/05/31 09:46:51;;;;;;;13.43;5.37;;;;;;;30.16;100.00;64036.47;5092491;28;20202;-74
2022/05/31 09:49:26;;;;;;;13.83;4.37;;;;;;;30.43;100.00;64065.91;5092232;28;20205;-72
2022/05/31 09:51:54;;;;;;;14.50;4.70;;;;;;;30.64;100.00;64088.84;5092745;28;20223;-74
2022/05/31 09:57:13;;;;;;;15.03;4.90;;;;;;;30.76;100.00;64101.94;5092409;28;20210;-74
2022/05/31 09:59:46;;;;;;;9.67;5.00;;;;;;;30.71;100.00;64085.94;5092085;28;20205;-78
2022/05/31 10:02:26;;;;;;;9.70;4.63;;;;;;;31.02;100.00;64129.78;5092010;28;20202;-74
2022/05/31 10:05:15;;;;;;;8.87;4.40;;;;;;;31.06;100.00;64133.59;5092209;28;20657;-73
2022/05/31 10:07:46;;;;;;;10.00;4.40;;;;;;;31.10;100.00;64135.31;5091183;28;20633;-73
2022/05/31 10:10:16;;;;;;;14.03;4.87;;;;;;;31.32;100.00;64159.34;5092184;28;20210;-72
2022/05/31 10:12:54;;;;;;;6.77;4.17;;;;;;;31.39;100.00;64169.63;5092180;28;20286;-76
2022/05/31 10:15:40;;;;;;;13.10;4.77;;;;;;;31.27;100.00;64162.31;5092151;28;20205;-74
2022/05/31 10:18:10;;;;;;;13.33;4.17;;;;;;;31.21;100.00;64150.50;5080467;28;20647;-74
2022/05/31 10:20:54;;;;;;;10.67;4.00;;;;;;;31.15;100.00;64138.16;5091262;28;20265;-74
2022/05/31 10:23:25;;;;;;;14.13;4.70;;;;;;;31.26;100.00;64152.78;5092190;28;20211;-72
2022/05/31 10:25:54;;;;;;;15.17;4.90;;;;;;;31.22;100.00;64145.78;5092096;28;20207;-73
2022/05/31 10:28:29;;;;;;;8.27;4.60;;;;;;;31.08;100.00;64133.13;5092013;28;20198;-74
2022/05/31 10:31:03;;;;;;;14.27;4.80;;;;;;;30.58;100.00;64082.28;5091467;28;20226;-74
2022/05/31 10:33:31;;;;;;;32.53;5.90;;;;;;;30.98;100.00;64124.88;5091823;28;20258;-73
2022/05/31 10:36:14;;;;;;;12.57;4.67;;;;;;;31.30;100.00;64159.78;5091735;28;20229;-73
2022/05/31 10:38:45;;;;;;;11.13;4.53;;;;;;;30.95;100.00;64126.88;5092145;28;20272;-73
2022/05/31 10:41:20;;;;;;;9.87;3.87;;;;;;;31.35;100.00;64165.25;5092203;28;20196;-73
2022/05/31 10:43:51;;;;;;;13.13;4.40;;;;;;;31.31;100.00;64163.53;5091701;28;20199;-74
2022/05/31 10:46:26;;;;;;;8.53;4.43;;;;;;;31.54;100.00;64186.00;5092174;28;20200;-75
2022/05/31 10:48:54;;;;;;;8.07;3.50;;;;;;;31.62;100.00;64194.75;5091600;28;20198;-73
2022/05/31 10:51:35;;;;;;;9.67;3.50;;;;;;;32.28;100.00;64266.84;5091390;28;20671;-73
2022/05/31 10:54:26;;;;;;;11.03;3.80;;;;;;;32.42;100.00;64279.50;5091436;28;20228;-74
2022/05/31 10:57:08;;;;;;;8.80;3.90;;;;;;;32.51;100.00;64285.63;5091975;28;20225;-73
2022/05/31 10:59:38;;;;;;;8.30;4.30;;;;;;;32.26;100.00;64264.66;5078028;28;20197;-73
2022/05/31 11:02:34;;;;;;;15.77;4.37;;;;;;;32.50;100.00;64292.47;5091621;28;20201;-74
2022/05/31 11:05:06;;;;;;;8.77;3.87;;;;;;;32.23;100.00;64260.84;5090924;28;20667;-75
2022/05/31 11:13:42;;;;;;;9.93;3.90;;;;;;;33.14;100.00;64362.44;5091280;28;20833;-74
2022/05/31 11:16:18;;;;;;;9.50;4.10;;;;;;;33.09;100.00;64354.31;5091240;28;20202;-74
2022/05/31 11:19:20;;;;;;;17.30;4.70;;;;;;;32.94;100.00;64335.25;5091251;28;20217;-74
2022/05/31 11:21:57;;;;;;;6.13;3.70;;;;;;;33.00;100.00;64344.47;5091418;28;20241;-73
2022/05/31 11:24:57;;;;;;;8.90;3.73;;;;;;;32.16;100.00;64250.53;5091580;28;20213;-73
2022/05/31 11:27:35;;;;;;;14.93;5.07;;;;;;;32.21;100.00;64259.22;5091301;28;20196;-73
2022/05/31 11:30:11;;;;;;;10.60;3.93;;;;;;;32.72;100.00;64313.84;5093066;28;20280;-74
2022/05/31 11:33:03;;;;;;;11.03;3.73;;;;;;;32.12;100.00;64246.72;5095601;28;20252;-76
2022/05/31 11:35:42;;;;;;;6.10;3.40;;;;;;;32.59;100.00;64300.19;5095090;28;20230;-74
2022/05/31 11:38:15;;;;;;;10.67;3.50;;;;;;;33.04;100.00;64348.84;5095265;28;20321;-74
2022/05/31 11:40:59;;;;;;;11.23;3.70;;;;;;;32.62;100.00;64300.28;5095017;28;20633;-74
2022/05/31 11:43:51;;;;;;;7.93;3.13;;;;;;;32.73;99.22;64315.50;5095353;28;20197;-73
2022/05/31 11:46:28;;;;;;;6.13;2.93;;;;;;;33.02;91.05;64346.66;5084354;28;20201;-73
2022/05/31 11:48:59;;;;;;;18.37;3.63;;;;;;;33.14;97.04;64359.78;5095145;28;20210;-74
2022/05/31 11:51:50;;;;;;;15.23;3.90;;;;;;;32.33;86.95;64269.69;5094899;28;20297;-74
2022/05/31 11:55:25;;;;;;;9.93;2.90;;;;;;;32.16;96.90;64253.72;5094504;28;20239;-74
2022/05/31 11:57:51;;;;;;;8.00;2.77;;;;;;;32.01;97.64;64236.81;5094679;28;20226;-73
2022/05/31 12:00:19;;;;;;;8.07;3.23;;;;;;;32.28;94.19;64266.84;5095056;28;20265;-73
2022/05/31 12:02:52;;;;;;;8.00;2.90;;;;;;;32.62;87.29;64302.94;5094410;28;20588;-73
2022/05/31 12:05:25;;;;;;;8.10;2.90;;;;;;;32.67;88.87;64308.38;5094766;28;20724;-73